Time;durP1;ratioP1;P1;durP2;ratioP2;P2;SDS_P1;SDS_P2;PMS_P1;PMS_P2;Temp;Humidity;BMP_temperature;BMP_pressure;BME280_temperature;BME280_humidity;BME280_pressure;Samples;Min_cycle;Max_cycle;Signal;HPM_P1;HPM_P2
2022/06/13 00:00:28;;;;;;;14.85;6.70;;;;;;;;;;5028418;28;20057;-72
2022/06/13 00:02:54;;;;;;;9.00;4.70;;;;;;;;;;5028133;28;20055;-72
2022/06/13 00:05:20;;;;;;;10.30;4.50;;;;;;;;;;5009824;28;20068;-72
2022/06/13 00:07:46;;;;;;;5.15;4.70;;;;;;;;;;5010089;28;20077;-72
2022/06/13 00:10:12;;;;;;;5.15;4.72;;;;;;;;;;5027530;28;20052;-70
2022/06/13 00:12:38;;;;;;;7.95;5.25;;;;;;;;;;4993369;28;20040;-71
2022/06/13 00:15:04;;;;;;;5.97;4.80;;;;;;;;;;5009618;28;20061;-75
2022/06/13 00:17:30;;;;;;;9.00;5.00;;;;;;;;;;5027436;28;20045;-73
2022/06/13 00:19:56;;;;;;;6.53;5.07;;;;;;;;;;5027732;28;20402;-73
2022/06/13 00:22:22;;;;;;;13.45;5.97;;;;;;;;;;5027233;28;20060;-71
2022/06/13 00:24:48;;;;;;;11.85;5.93;;;;;;;;;;5026480;28;20521;-71
2022/06/13 00:27:15;;;;;;;8.75;4.85;;;;;;;;;;5027389;28;20096;-72
2022/06/13 00:29:42;;;;;;;14.80;5.90;;;;;;;;;;5009938;28;20073;-72
2022/06/13 00:32:07;;;;;;;14.95;6.63;;;;;;;;;;5009766;28;20145;-71
2022/06/13 00:34:33;;;;;;;12.15;5.90;;;;;;;;;;5013701;28;20064;-71
2022/06/13 00:36:59;;;;;;;13.23;6.60;;;;;;;;;;5031684;28;20100;-72
2022/06/13 00:39:25;;;;;;;8.00;5.63;;;;;;;;;;5013366;28;20414;-73
2022/06/13 00:41:51;;;;;;;10.13;5.50;;;;;;;;;;5031494;28;20046;-71
2022/06/13 00:44:24;;;;;;;6.28;5.25;;;;;;;;;;5031069;28;20606;-72
2022/06/13 00:46:50;;;;;;;9.88;4.70;;;;;;;;;;5013478;28;20510;-72
2022/06/13 00:49:28;;;;;;;10.88;4.45;;;;;;;;;;5013303;28;20119;-73
2022/06/13 00:52:11;;;;;;;11.82;4.30;;;;;;;;;;5031349;28;20136;-72
2022/06/13 00:54:37;;;;;;;6.03;4.47;;;;;;;;;;5031201;28;20062;-73
2022/06/13 00:57:04;;;;;;;7.85;4.38;;;;;;;;;;5013528;28;20513;-73
2022/06/13 00:59:31;;;;;;;8.70;4.00;;;;;;;;;;5013301;28;20041;-73
2022/06/13 01:01:57;;;;;;;6.82;3.80;;;;;;;;;;5013392;28;20026;-71
2022/06/13 01:04:23;;;;;;;13.13;4.50;;;;;;;;;;5029545;28;20080;-72
2022/06/13 01:06:49;;;;;;;9.15;4.38;;;;;;;;;;5013518;28;20072;-72
2022/06/13 01:09:15;;;;;;;12.52;4.03;;;;;;;;;;5030593;28;20037;-72
2022/06/13 01:11:48;;;;;;;13.32;4.40;;;;;;;;;;5031013;28;20607;-72
2022/06/13 01:14:38;;;;;;;15.73;5.38;;;;;;;;;;5013080;28;20080;-72
2022/06/13 01:17:16;;;;;;;8.82;4.20;;;;;;;;;;5013221;28;20056;-72
2022/06/13 01:20:01;;;;;;;7.97;4.13;;;;;;;;;;5030586;28;20058;-72
2022/06/13 01:22:31;;;;;;;6.80;4.20;;;;;;;;;;5030205;28;20827;-72
2022/06/13 01:25:06;;;;;;;10.90;4.50;;;;;;;;;;5030715;28;20529;-72
2022/06/13 01:28:07;;;;;;;11.95;4.88;;;;;;;;;;5030569;28;20048;-72
2022/06/13 01:30:39;;;;;;;21.05;7.55;;;;;;;;;;4952973;28;20042;-72
2022/06/13 01:33:05;;;;;;;15.90;7.72;;;;;;;;;;5002747;28;20038;-72
2022/06/13 01:35:40;;;;;;;23.33;8.02;;;;;;;;;;5030012;28;20107;-71
2022/06/13 01:38:09;;;;;;;27.17;8.10;;;;;;;;;;5030721;28;20040;-72
2022/06/13 01:40:40;;;;;;;15.23;7.35;;;;;;;;;;5030300;28;20045;-72
2022/06/13 01:43:19;;;;;;;13.27;7.45;;;;;;;;;;5030438;28;20044;-72
2022/06/13 01:45:47;;;;;;;8.48;4.63;;;;;;;;;;5012111;28;20052;-71
2022/06/13 01:48:31;;;;;;;10.10;5.28;;;;;;;;;;4996045;28;20071;-72
2022/06/13 01:51:03;;;;;;;9.10;4.53;;;;;;;;;;5029188;28;20053;-72
2022/06/13 01:53:38;;;;;;;5.13;4.43;;;;;;;;;;5029970;28;20112;-71
2022/06/13 01:56:12;;;;;;;9.25;5.47;;;;;;;;;;5030295;28;20123;-72
2022/06/13 01:58:37;;;;;;;12.55;5.22;;;;;;;;;;5030131;28;20063;-72
2022/06/13 02:01:07;;;;;;;4.13;3.83;;;;;;;;;;5028749;28;20045;-72
2022/06/13 02:03:39;;;;;;;5.57;4.03;;;;;;;;;;5029384;28;20065;-73
2022/06/13 02:06:16;;;;;;;6.15;4.50;;;;;;;;;;5012581;28;20046;-70
2022/06/13 02:09:00;;;;;;;7.57;4.72;;;;;;;;;;5011925;28;20037;-72
2022/06/13 02:11:29;;;;;;;6.57;4.32;;;;;;;;;;5011996;28;20422;-71
2022/06/13 02:14:06;;;;;;;6.88;4.80;;;;;;;;;;5029794;28;20132;-72
2022/06/13 02:16:37;;;;;;;10.95;4.65;;;;;;;;;;5012562;28;20042;-73
2022/06/13 02:19:07;;;;;;;10.63;4.43;;;;;;;;;;5033409;28;20075;-73
2022/06/13 02:21:43;;;;;;;7.25;4.55;;;;;;;;;;5014279;28;20136;-72
2022/06/13 02:24:11;;;;;;;11.45;5.18;;;;;;;;;;4995801;28;20044;-71
2022/06/13 02:26:37;;;;;;;6.78;5.10;;;;;;;;;;5029343;28;20422;-72
2022/06/13 02:29:05;;;;;;;5.80;5.30;;;;;;;;;;4995616;28;20130;-73
2022/06/13 02:31:43;;;;;;;8.27;5.53;;;;;;;;;;5011618;28;20076;-72
2022/06/13 02:34:11;;;;;;;11.77;7.07;;;;;;;;;;5011846;28;20563;-71
2022/06/13 02:36:40;;;;;;;4.65;4.25;;;;;;;;;;5011684;28;20133;-72
2022/06/13 02:39:10;;;;;;;6.40;4.75;;;;;;;;;;5011531;28;20036;-71
2022/06/13 02:41:47;;;;;;;4.63;4.10;;;;;;;;;;4995210;28;20466;-70
2022/06/13 02:44:16;;;;;;;5.03;4.63;;;;;;;;;;5027747;28;20520;-71
2022/06/13 02:46:49;;;;;;;4.30;3.90;;;;;;;;;;5011520;28;20038;-71
2022/06/13 02:49:17;;;;;;;12.05;3.75;;;;;;;;;;5028719;28;20141;-72
2022/06/13 02:51:59;;;;;;;8.30;4.03;;;;;;;;;;5011232;28;20428;-73
2022/06/13 02:54:43;;;;;;;5.70;3.72;;;;;;;;;;5010967;28;20041;-71
2022/06/13 02:57:25;;;;;;;5.63;4.03;;;;;;;;;;5028007;28;20041;-72
2022/06/13 03:00:06;;;;;;;9.10;3.83;;;;;;;;;;5027578;28;20041;-72
2022/06/13 03:02:51;;;;;;;4.63;3.70;;;;;;;;;;5010740;28;20605;-72
2022/06/13 03:05:35;;;;;;;6.40;3.63;;;;;;;;;;5027308;28;20095;-73
2022/06/13 03:08:01;;;;;;;5.85;4.28;;;;;;;;;;5028893;28;20042;-71
2022/06/13 03:10:30;;;;;;;5.72;3.60;;;;;;;;;;5027059;28;20037;-73
2022/06/13 03:12:59;;;;;;;4.35;3.50;;;;;;;;;;5010902;28;20044;-73
2022/06/13 03:15:44;;;;;;;9.45;3.78;;;;;;;;;;5028418;28;20053;-71
2022/06/13 03:18:20;;;;;;;9.90;3.78;;;;;;;;;;5028503;28;20044;-72
2022/06/13 03:20:52;;;;;;;8.80;3.92;;;;;;;;;;5011046;28;20347;-73
2022/06/13 03:23:23;;;;;;;5.88;4.20;;;;;;;;;;5029278;28;20453;-74
2022/06/13 03:25:50;;;;;;;7.78;3.90;;;;;;;;;;5011457;28;20052;-72
2022/06/13 03:28:16;;;;;;;7.22;4.38;;;;;;;;;;5028417;28;20042;-72
2022/06/13 03:30:43;;;;;;;4.65;3.75;;;;;;;;;;5028302;28;20102;-72
2022/06/13 03:35:55;;;;;;;4.55;3.67;;;;;;;;;;5013448;28;20057;-72
2022/06/13 03:38:23;;;;;;;4.65;3.78;;;;;;;;;;5010271;28;20064;-72
2022/06/13 03:40:50;;;;;;;6.75;3.70;;;;;;;;;;5010819;28;20461;-72
2022/06/13 03:43:28;;;;;;;4.43;3.65;;;;;;;;;;5028120;28;20057;-71
2022/06/13 03:45:55;;;;;;;8.80;4.03;;;;;;;;;;5010328;28;20442;-71
2022/06/13 03:48:27;;;;;;;4.75;4.20;;;;;;;;;;5027833;28;20041;-71
2022/06/13 03:50:55;;;;;;;5.68;3.67;;;;;;;;;;5010313;28;20037;-73
2022/06/13 03:53:31;;;;;;;6.88;4.03;;;;;;;;;;5010071;28;20513;-71
2022/06/13 03:56:00;;;;;;;8.02;3.90;;;;;;;;;;5027884;28;20045;-71
2022/06/13 03:58:37;;;;;;;5.28;3.38;;;;;;;;;;5010125;28;20030;-73
2022/06/13 04:01:04;;;;;;;8.15;3.20;;;;;;;;;;4994026;28;20045;-72
2022/06/13 04:03:30;;;;;;;8.10;4.10;;;;;;;;;;4993406;28;20514;-72
2022/06/13 04:06:01;;;;;;;7.43;3.83;;;;;;;;;;4994074;28;20103;-71
2022/06/13 04:08:27;;;;;;;10.00;4.22;;;;;;;;;;5027147;28;20049;-71
2022/06/13 04:11:09;;;;;;;3.95;3.55;;;;;;;;;;5010127;28;20033;-72
2022/06/13 04:13:41;;;;;;;5.18;3.40;;;;;;;;;;4993376;28;20042;-71
2022/06/13 04:16:16;;;;;;;4.95;3.60;;;;;;;;;;5010034;28;20517;-71
2022/06/13 04:18:42;;;;;;;8.90;3.75;;;;;;;;;;4993877;28;20038;-72
2022/06/13 04:21:17;;;;;;;6.28;3.85;;;;;;;;;;5027559;28;20521;-72
2022/06/13 04:23:50;;;;;;;3.80;3.30;;;;;;;;;;5009860;28;20409;-71
2022/06/13 04:26:15;;;;;;;5.32;3.47;;;;;;;;;;5009864;28;20046;-72
2022/06/13 04:29:08;;;;;;;6.32;3.28;;;;;;;;;;5027340;28;20533;-72
2022/06/13 04:31:33;;;;;;;3.75;3.50;;;;;;;;;;5003955;28;20045;-73
2022/06/13 04:34:05;;;;;;;4.60;3.30;;;;;;;;;;5027590;28;20049;-72
2022/06/13 04:36:31;;;;;;;4.35;3.30;;;;;;;;;;5009733;28;20061;-72
2022/06/13 04:38:58;;;;;;;6.07;3.42;;;;;;;;;;5010078;28;20041;-72
2022/06/13 04:41:24;;;;;;;4.32;3.47;;;;;;;;;;5009828;28;20050;-73
2022/06/13 04:43:51;;;;;;;4.30;3.80;;;;;;;;;;5009727;28;20040;-73
2022/06/13 04:46:17;;;;;;;6.40;3.50;;;;;;;;;;5010007;28;20073;-72
2022/06/13 04:48:44;;;;;;;8.23;3.88;;;;;;;;;;5027383;28;20049;-72
2022/06/13 04:51:10;;;;;;;9.88;3.47;;;;;;;;;;5009861;28;20057;-71
2022/06/13 04:53:36;;;;;;;4.75;3.45;;;;;;;;;;5009421;28;20538;-72
2022/06/13 04:56:02;;;;;;;15.82;4.10;;;;;;;;;;5027300;28;20054;-72
2022/06/13 04:58:29;;;;;;;5.68;3.60;;;;;;;;;;5009507;28;20036;-72
2022/06/13 05:01:15;;;;;;;13.52;3.42;;;;;;;;;;5027327;28;20196;-73
2022/06/13 05:03:42;;;;;;;5.72;3.03;;;;;;;;;;5008733;28;20437;-72
2022/06/13 05:06:44;;;;;;;6.35;3.15;;;;;;;;;;5010198;28;20547;-71
2022/06/13 05:09:10;;;;;;;4.05;3.10;;;;;;;;;;4949757;28;20031;-72
2022/06/13 05:11:39;;;;;;;5.20;2.95;;;;;;;;;;5014260;28;20462;-72
2022/06/13 05:14:09;;;;;;;5.78;3.20;;;;;;;;;;5009768;28;20037;-72
2022/06/13 05:16:41;;;;;;;6.22;3.75;;;;;;;;;;5027601;28;20046;-72
2022/06/13 05:19:06;;;;;;;4.35;3.20;;;;;;;;;;5029860;28;20063;-73
2022/06/13 05:21:32;;;;;;;5.82;3.20;;;;;;;;;;5035915;28;20144;-72
2022/06/13 05:24:17;;;;;;;7.00;3.60;;;;;;;;;;5033983;28;20056;-71
2022/06/13 05:26:43;;;;;;;6.82;3.17;;;;;;;;;;5030501;28;20034;-72
2022/06/13 05:29:09;;;;;;;5.82;3.28;;;;;;;;;;5030785;28;20102;-71
2022/06/13 05:31:35;;;;;;;4.80;3.53;;;;;;;;;;5030582;28;20032;-73
2022/06/13 05:34:01;;;;;;;8.90;3.38;;;;;;;;;;5012881;28;20049;-73
2022/06/13 05:36:27;;;;;;;4.10;3.50;;;;;;;;;;5030493;28;20057;-73
2022/06/13 05:38:58;;;;;;;4.03;3.20;;;;;;;;;;5030268;28;20068;-74
2022/06/13 05:41:24;;;;;;;4.35;3.10;;;;;;;;;;4996165;28;20390;-74
2022/06/13 05:43:50;;;;;;;7.05;3.30;;;;;;;;;;5012421;28;20037;-73
2022/06/13 05:46:26;;;;;;;3.60;3.20;;;;;;;;;;5012672;28;20131;-74
2022/06/13 05:48:52;;;;;;;13.52;3.22;;;;;;;;;;5012578;28;20339;-72
2022/06/13 05:51:17;;;;;;;6.90;3.00;;;;;;;;;;5030317;28;20124;-74
2022/06/13 05:53:44;;;;;;;3.92;3.10;;;;;;;;;;5029881;28;20132;-72
2022/06/13 05:56:10;;;;;;;5.03;3.33;;;;;;;;;;5030218;28;20061;-73
2022/06/13 05:58:36;;;;;;;3.72;3.13;;;;;;;;;;5029910;28;20107;-72
2022/06/13 06:01:02;;;;;;;3.00;2.80;;;;;;;;;;5012558;28;20037;-73
2022/06/13 06:03:28;;;;;;;5.18;3.70;;;;;;;;;;5012069;28;20049;-73
2022/06/13 06:05:54;;;;;;;6.25;3.85;;;;;;;;;;5028664;28;20422;-74
2022/06/13 06:08:21;;;;;;;7.40;3.20;;;;;;;;;;5029903;28;20462;-73
2022/06/13 06:10:48;;;;;;;5.53;4.05;;;;;;;;;;5012124;28;20056;-74
2022/06/13 06:13:14;;;;;;;5.45;3.15;;;;;;;;;;5012230;28;20048;-73
2022/06/13 06:15:40;;;;;;;3.40;3.10;;;;;;;;;;5028051;28;20477;-73
2022/06/13 06:18:06;;;;;;;7.47;3.00;;;;;;;;;;5012331;28;20045;-73
2022/06/13 06:20:32;;;;;;;3.22;3.03;;;;;;;;;;5029255;28;20033;-72
2022/06/13 06:22:58;;;;;;;8.35;4.97;;;;;;;;;;5029709;28;20057;-72
2022/06/13 06:25:23;;;;;;;3.58;3.28;;;;;;;;;;5029851;28;20111;-73
2022/06/13 06:27:50;;;;;;;2.72;2.53;;;;;;;;;;5029569;28;20107;-73
2022/06/13 06:30:16;;;;;;;3.40;3.20;;;;;;;;;;5029358;28;20045;-73
2022/06/13 06:32:42;;;;;;;3.47;2.80;;;;;;;;;;5029422;28;20044;-73
2022/06/13 06:35:08;;;;;;;3.80;2.90;;;;;;;;;;5029487;28;20134;-74
2022/06/13 06:37:39;;;;;;;8.88;3.15;;;;;;;;;;5029140;28;20080;-73
2022/06/13 06:40:06;;;;;;;5.90;3.22;;;;;;;;;;5029588;28;20051;-73
2022/06/13 06:42:32;;;;;;;3.35;3.08;;;;;;;;;;5011579;28;20046;-73
2022/06/13 06:44:58;;;;;;;5.80;3.28;;;;;;;;;;5029449;28;20060;-73
2022/06/13 06:47:23;;;;;;;3.58;3.15;;;;;;;;;;5011832;28;20056;-73
2022/06/13 06:49:49;;;;;;;6.93;3.30;;;;;;;;;;5028853;28;20045;-73
2022/06/13 06:52:15;;;;;;;4.03;3.67;;;;;;;;;;5029332;28;20252;-74
2022/06/13 07:00:11;;;;;;;4.95;3.45;;;;;;;;;;5027772;28;20041;-73
2022/06/13 07:02:37;;;;;;;5.93;3.75;;;;;;;;;;5028524;28;20045;-72
2022/06/13 07:05:04;;;;;;;5.43;3.05;;;;;;;;;;5028832;28;20052;-73
2022/06/13 07:07:30;;;;;;;3.72;2.63;;;;;;;;;;5028668;28;20045;-74
2022/06/13 07:09:56;;;;;;;2.85;2.67;;;;;;;;;;5010923;28;20048;-75
2022/06/13 07:12:22;;;;;;;3.00;2.80;;;;;;;;;;5011150;28;20582;-71
2022/06/13 07:14:48;;;;;;;4.05;3.38;;;;;;;;;;5028175;28;20051;-73
2022/06/13 07:17:14;;;;;;;6.80;3.00;;;;;;;;;;5011102;28;20072;-73
2022/06/13 07:19:40;;;;;;;6.28;3.00;;;;;;;;;;5028358;28;20563;-73
2022/06/13 07:22:06;;;;;;;3.65;2.97;;;;;;;;;;5029711;28;20560;-72
2022/06/13 07:24:32;;;;;;;5.25;3.35;;;;;;;;;;5030167;28;20510;-73
2022/06/13 07:26:57;;;;;;;5.00;3.35;;;;;;;;;;5027836;28;20139;-73
2022/06/13 07:29:23;;;;;;;3.30;3.00;;;;;;;;;;5028417;28;20063;-73
2022/06/13 07:31:58;;;;;;;4.72;3.03;;;;;;;;;;4994358;28;20045;-73
2022/06/13 07:34:25;;;;;;;4.00;3.10;;;;;;;;;;5028466;28;20038;-73
2022/06/13 07:36:51;;;;;;;3.50;3.22;;;;;;;;;;5028036;28;20056;-73
2022/06/13 07:39:17;;;;;;;3.50;3.30;;;;;;;;;;5028434;28;20049;-73
2022/06/13 07:41:43;;;;;;;3.10;2.90;;;;;;;;;;5027903;28;20045;-72
2022/06/13 07:44:13;;;;;;;3.67;2.92;;;;;;;;;;5010362;28;20510;-73
2022/06/13 07:46:39;;;;;;;6.30;2.90;;;;;;;;;;5010276;28;20034;-73
2022/06/13 07:49:04;;;;;;;3.53;3.20;;;;;;;;;;5028336;28;20418;-73
2022/06/13 07:51:30;;;;;;;3.00;2.90;;;;;;;;;;5028103;28;20041;-73
2022/06/13 07:53:56;;;;;;;3.20;3.00;;;;;;;;;;5010804;28;20041;-71
2022/06/13 07:56:23;;;;;;;3.20;2.90;;;;;;;;;;5028112;28;20053;-73
2022/06/13 07:58:49;;;;;;;3.65;3.20;;;;;;;;;;5027811;28;20053;-72
2022/06/13 08:01:16;;;;;;;3.47;3.28;;;;;;;;;;5027962;28;20038;-73
2022/06/13 08:03:42;;;;;;;17.02;3.20;;;;;;;;;;5027568;28;20069;-73
2022/06/13 08:06:08;;;;;;;4.80;3.03;;;;;;;;;;5028181;28;20045;-74
2022/06/13 08:08:36;;;;;;;4.05;3.20;;;;;;;;;;5027736;28;20152;-74
2022/06/13 08:11:03;;;;;;;3.38;3.08;;;;;;;;;;5028224;28;20047;-73
2022/06/13 08:13:29;;;;;;;3.28;3.03;;;;;;;;;;5028691;28;20095;-72
2022/06/13 08:15:56;;;;;;;3.30;3.10;;;;;;;;;;5028601;28;20521;-74
2022/06/13 08:18:22;;;;;;;2.92;2.78;;;;;;;;;;5031477;28;20377;-72
2022/06/13 08:20:47;;;;;;;5.93;3.08;;;;;;;;;;5029888;28;20080;-72
2022/06/13 08:23:14;;;;;;;5.63;3.10;;;;;;;;;;4993854;28;20037;-73
2022/06/13 08:25:41;;;;;;;3.10;2.80;;;;;;;;;;5027509;28;20045;-73
2022/06/13 08:28:08;;;;;;;7.28;3.20;;;;;;;;;;5027884;28;20087;-73
2022/06/13 08:30:42;;;;;;;5.72;3.17;;;;;;;;;;5027283;28;20045;-73
2022/06/13 08:33:08;;;;;;;7.65;3.40;;;;;;;;;;5009851;28;20044;-73
2022/06/13 08:35:34;;;;;;;4.35;2.90;;;;;;;;;;5027110;28;20049;-74
2022/06/13 08:38:03;;;;;;;3.10;2.80;;;;;;;;;;5009710;28;20080;-72
2022/06/13 08:40:33;;;;;;;3.28;2.97;;;;;;;;;;5027367;28;20200;-74
2022/06/13 08:43:18;;;;;;;3.20;3.00;;;;;;;;;;4977323;28;20049;-72
2022/06/13 08:45:44;;;;;;;3.53;2.95;;;;;;;;;;5027031;28;20038;-73
2022/06/13 08:48:14;;;;;;;3.10;2.90;;;;;;;;;;5009870;28;20091;-74
2022/06/13 08:50:42;;;;;;;5.68;2.50;;;;;;;;;;5027002;28;20521;-73
2022/06/13 08:53:15;;;;;;;2.90;2.70;;;;;;;;;;5027478;28;20045;-73
2022/06/13 08:55:47;;;;;;;4.55;2.50;;;;;;;;;;5030922;28;20049;-72
2022/06/13 08:58:16;;;;;;;3.00;2.70;;;;;;;;;;5031119;28;20401;-72
2022/06/13 09:00:44;;;;;;;2.65;2.45;;;;;;;;;;5013159;28;20041;-72
2022/06/13 09:03:11;;;;;;;3.30;3.10;;;;;;;;;;4996949;28;20041;-73
2022/06/13 09:05:50;;;;;;;3.75;2.50;;;;;;;;;;5030886;28;20597;-75
2022/06/13 09:08:15;;;;;;;2.40;2.30;;;;;;;;;;5031184;28;20132;-73
2022/06/13 09:11:00;;;;;;;2.88;2.65;;;;;;;;;;5029691;28;20053;-74
2022/06/13 09:13:28;;;;;;;3.05;2.33;;;;;;;;;;5031158;28;20323;-74
2022/06/13 09:15:56;;;;;;;5.15;3.28;;;;;;;;;;5030450;28;20635;-73
2022/06/13 09:18:42;;;;;;;4.35;2.75;;;;;;;;;;5031086;28;20584;-74
2022/06/13 09:21:11;;;;;;;3.60;3.30;;;;;;;;;;5030630;28;20054;-73
2022/06/13 09:23:36;;;;;;;9.50;2.88;;;;;;;;;;5030482;28;20136;-73
2022/06/13 09:26:06;;;;;;;3.22;2.80;;;;;;;;;;5030635;28;20553;-74
2022/06/13 09:28:34;;;;;;;4.85;2.72;;;;;;;;;;4996690;28;20049;-72
2022/06/13 09:31:05;;;;;;;5.05;2.72;;;;;;;;;;5030640;28;20506;-74
2022/06/13 09:33:32;;;;;;;3.60;2.80;;;;;;;;;;5030536;28;20179;-75
2022/06/13 09:35:59;;;;;;;2.88;2.65;;;;;;;;;;5030205;28;20302;-72
2022/06/13 09:38:27;;;;;;;5.18;2.80;;;;;;;;;;5030743;28;20037;-73
2022/06/13 09:40:55;;;;;;;2.80;2.60;;;;;;;;;;5030123;28;20266;-73
2022/06/13 09:43:32;;;;;;;3.72;2.67;;;;;;;;;;5012523;28;20421;-73
2022/06/13 09:45:57;;;;;;;7.40;2.90;;;;;;;;;;5012152;28;20037;-74
2022/06/13 09:48:36;;;;;;;3.25;2.92;;;;;;;;;;5012598;28;20394;-74
2022/06/13 09:51:08;;;;;;;6.18;2.90;;;;;;;;;;5012627;28;20045;-72
2022/06/13 09:53:37;;;;;;;2.75;2.65;;;;;;;;;;5030252;28;20277;-73
2022/06/13 09:56:18;;;;;;;5.77;3.17;;;;;;;;;;4996090;28;20128;-72
2022/06/13 09:58:48;;;;;;;4.68;2.80;;;;;;;;;;5029889;28;20383;-74
2022/06/13 10:01:19;;;;;;;2.63;2.38;;;;;;;;;;5030082;28;20048;-73
2022/06/13 10:04:03;;;;;;;4.50;2.38;;;;;;;;;;5012017;28;20045;-73
2022/06/13 10:06:29;;;;;;;2.72;2.50;;;;;;;;;;5011754;28;20115;-74
2022/06/13 10:08:55;;;;;;;2.25;2.15;;;;;;;;;;5029532;28;20045;-74
2022/06/13 10:11:32;;;;;;;2.33;2.20;;;;;;;;;;5029834;28;20041;-73
2022/06/13 10:14:06;;;;;;;4.35;2.08;;;;;;;;;;5011900;28;20104;-73
2022/06/13 10:16:36;;;;;;;2.60;2.50;;;;;;;;;;5012771;28;20060;-73
2022/06/13 10:19:21;;;;;;;4.30;2.22;;;;;;;;;;4995857;28;20048;-73
2022/06/13 10:21:48;;;;;;;4.30;2.20;;;;;;;;;;5029386;28;20053;-74
2022/06/13 10:24:14;;;;;;;2.72;2.30;;;;;;;;;;5029516;28;20107;-73
2022/06/13 10:26:59;;;;;;;2.85;2.50;;;;;;;;;;5029494;28;20048;-73
2022/06/13 10:29:43;;;;;;;2.88;2.50;;;;;;;;;;5029549;28;20169;-74
2022/06/13 10:32:35;;;;;;;2.28;2.17;;;;;;;;;;5011821;28;20119;-74
2022/06/13 10:35:20;;;;;;;2.92;2.50;;;;;;;;;;5005539;28;20053;-74
2022/06/13 10:37:52;;;;;;;2.20;2.10;;;;;;;;;;5026330;28;20049;-74
2022/06/13 10:40:18;;;;;;;2.55;2.40;;;;;;;;;;5012549;28;20149;-74
2022/06/13 10:42:45;;;;;;;4.25;2.35;;;;;;;;;;5007917;28;20137;-73
2022/06/13 10:45:11;;;;;;;3.95;2.90;;;;;;;;;;4989967;28;20053;-73
2022/06/13 10:47:54;;;;;;;2.85;2.65;;;;;;;;;;5009237;28;20049;-73
2022/06/13 10:50:22;;;;;;;2.70;2.50;;;;;;;;;;4975901;28;20072;-73
2022/06/13 10:52:49;;;;;;;2.80;2.60;;;;;;;;;;4991644;28;20034;-73
2022/06/13 10:55:16;;;;;;;5.30;2.53;;;;;;;;;;5008979;28;20065;-73
2022/06/13 10:57:44;;;;;;;6.28;2.55;;;;;;;;;;4991640;28;20494;-74
2022/06/13 11:00:15;;;;;;;2.65;2.47;;;;;;;;;;4991935;28;20513;-74
2022/06/13 11:02:41;;;;;;;4.00;2.60;;;;;;;;;;4991524;28;20050;-74
2022/06/13 11:05:07;;;;;;;2.72;2.53;;;;;;;;;;4991665;28;20056;-73
2022/06/13 11:07:41;;;;;;;3.35;2.08;;;;;;;;;;5009167;28;20042;-74
2022/06/13 11:10:16;;;;;;;2.40;2.22;;;;;;;;;;4991743;28;20044;-73
2022/06/13 11:12:42;;;;;;;2.33;2.22;;;;;;;;;;5008820;28;20057;-72
2022/06/13 11:23:59;;;;;;;2.15;2.00;;;;;;;;;;5009708;28;20465;-74
2022/06/13 11:29:16;;;;;;;2.22;2.13;;;;;;;;;;4993911;28;20518;-74
2022/06/13 11:31:49;;;;;;;2.50;2.40;;;;;;;;;;4991052;28;20042;-74
2022/06/13 11:34:35;;;;;;;2.58;2.38;;;;;;;;;;4991107;28;20038;-74
2022/06/13 11:37:03;;;;;;;7.53;2.63;;;;;;;;;;4974340;28;20050;-73
2022/06/13 11:39:33;;;;;;;4.30;2.60;;;;;;;;;;4991108;28;20112;-73
2022/06/13 11:41:59;;;;;;;2.35;2.17;;;;;;;;;;5008268;28;20100;-73
2022/06/13 11:44:25;;;;;;;2.47;2.38;;;;;;;;;;4991140;28;20522;-73
2022/06/13 11:46:51;;;;;;;5.88;2.60;;;;;;;;;;5008307;28;20041;-73
2022/06/13 11:49:17;;;;;;;2.92;2.10;;;;;;;;;;4990635;28;20072;-73
2022/06/13 11:51:48;;;;;;;3.08;2.10;;;;;;;;;;5008010;28;20521;-74
2022/06/13 11:54:22;;;;;;;3.47;2.30;;;;;;;;;;4990951;28;20089;-73
2022/06/13 11:56:48;;;;;;;6.55;2.45;;;;;;;;;;5008212;28;20062;-73
2022/06/13 11:59:15;;;;;;;2.30;2.17;;;;;;;;;;4990569;28;20042;-73
2022/06/13 12:01:41;;;;;;;7.32;2.50;;;;;;;;;;4974134;28;20088;-73
2022/06/13 12:04:14;;;;;;;3.00;2.50;;;;;;;;;;4990399;28;20065;-72
2022/06/13 12:06:46;;;;;;;2.60;2.40;;;;;;;;;;5008126;28;20077;-73
2022/06/13 12:09:13;;;;;;;3.15;2.40;;;;;;;;;;5008173;28;20073;-73
2022/06/13 12:11:43;;;;;;;4.25;2.30;;;;;;;;;;4990543;28;20124;-73
2022/06/13 12:14:09;;;;;;;;;;;;;;;;;;5008432;28;20049;-73
2022/06/13 12:16:37;;;;;;;4.95;2.50;;;;;;;;;;5006597;28;19928;-73
2022/06/13 12:19:09;;;;;;;2.70;2.60;;;;;;;;;;4989932;28;20053;-74
2022/06/13 12:21:40;;;;;;;5.53;2.65;;;;;;;;;;4992234;28;20546;-74
2022/06/13 12:24:09;;;;;;;3.08;2.65;;;;;;;;;;4994507;28;20084;-73
2022/06/13 12:26:36;;;;;;;3.60;2.72;;;;;;;;;;5002864;28;20088;-72
2022/06/13 12:29:11;;;;;;;8.63;2.80;;;;;;;;;;5007651;28;20533;-72
2022/06/13 12:31:38;;;;;;;5.10;3.30;;;;;;;;;;5013365;28;20152;-74
2022/06/13 12:34:15;;;;;;;3.10;2.70;;;;;;;;;;4998662;28;20049;-73
2022/06/13 12:37:00;;;;;;;5.57;3.30;;;;;;;;;;4978880;28;20081;-72
2022/06/13 12:39:41;;;;;;;3.58;3.28;;;;;;;;;;4996703;28;20132;-72
2022/06/13 12:42:09;;;;;;;11.57;3.67;;;;;;;;;;4996201;28;20507;-72
2022/06/13 12:44:44;;;;;;;4.05;3.75;;;;;;;;;;5005907;28;20100;-73
2022/06/13 12:47:13;;;;;;;3.90;3.58;;;;;;;;;;5020207;28;20050;-75
2022/06/13 12:49:39;;;;;;;4.93;3.67;;;;;;;;;;5013275;28;20046;-74
2022/06/13 12:52:23;;;;;;;4.80;3.67;;;;;;;;;;4996423;28;20047;-73
2022/06/13 12:54:50;;;;;;;5.18;3.90;;;;;;;;;;4994822;28;20054;-74
2022/06/13 12:57:22;;;;;;;4.65;3.80;;;;;;;;;;4995360;28;20044;-73
2022/06/13 13:00:03;;;;;;;8.27;4.82;;;;;;;;;;4996184;28;20053;-73
2022/06/13 13:02:48;;;;;;;5.85;4.05;;;;;;;;;;5001746;28;20120;-73
2022/06/13 13:05:17;;;;;;;4.70;4.40;;;;;;;;;;5035556;28;20101;-73
2022/06/13 13:07:54;;;;;;;9.63;4.75;;;;;;;;;;5034352;28;20096;-72
2022/06/13 13:10:38;;;;;;;8.23;4.70;;;;;;;;;;5034413;28;20044;-74
2022/06/13 13:13:23;;;;;;;4.38;4.07;;;;;;;;;;5035514;28;20040;-73
2022/06/13 13:15:54;;;;;;;7.70;4.18;;;;;;;;;;5035055;28;20061;-73
2022/06/13 13:18:47;;;;;;;7.57;4.68;;;;;;;;;;5034390;28;20026;-74
2022/06/13 13:21:15;;;;;;;9.43;4.50;;;;;;;;;;5026790;28;20057;-74
2022/06/13 13:23:41;;;;;;;4.93;4.15;;;;;;;;;;5035819;28;20072;-73
2022/06/13 13:26:07;;;;;;;4.80;4.40;;;;;;;;;;5035385;28;20855;-73
2022/06/13 13:28:45;;;;;;;5.85;5.22;;;;;;;;;;5035813;28;20110;-73
2022/06/13 13:31:13;;;;;;;7.07;5.82;;;;;;;;;;5035225;28;20052;-72
2022/06/13 13:33:49;;;;;;;5.38;4.97;;;;;;;;;;5001537;28;20136;-73
2022/06/13 13:36:22;;;;;;;6.20;5.30;;;;;;;;;;5034302;28;20048;-73
2022/06/13 13:38:58;;;;;;;11.65;5.18;;;;;;;;;;5035603;28;20132;-74
2022/06/13 13:41:32;;;;;;;6.80;4.25;;;;;;;;;;5047113;28;20132;-73
2022/06/13 13:44:13;;;;;;;4.32;3.95;;;;;;;;;;5030944;28;20042;-73
2022/06/13 13:46:51;;;;;;;5.30;4.82;;;;;;;;;;5004435;28;20460;-73
2022/06/13 13:49:28;;;;;;;4.80;4.40;;;;;;;;;;5030403;28;20048;-75
2022/06/13 13:51:54;;;;;;;6.75;4.13;;;;;;;;;;5014222;28;20099;-71
2022/06/13 13:54:24;;;;;;;4.32;4.00;;;;;;;;;;5032161;28;20049;-74
2022/06/13 13:57:05;;;;;;;4.30;3.97;;;;;;;;;;5013637;28;20426;-74
2022/06/13 13:59:33;;;;;;;4.10;3.90;;;;;;;;;;4998141;28;20042;-73
2022/06/13 14:01:58;;;;;;;4.82;4.50;;;;;;;;;;5014187;28;20087;-73
2022/06/13 14:04:31;;;;;;;5.30;4.82;;;;;;;;;;5032093;28;20490;-73
2022/06/13 14:07:15;;;;;;;9.18;8.30;;;;;;;;;;5014080;28;20069;-72
2022/06/13 14:09:42;;;;;;;6.03;5.53;;;;;;;;;;5032176;28;20412;-73
2022/06/13 14:12:09;;;;;;;7.78;5.32;;;;;;;;;;5014496;28;20037;-73
2022/06/13 14:14:47;;;;;;;6.57;5.95;;;;;;;;;;5019533;28;20042;-74
2022/06/13 14:17:14;;;;;;;7.43;5.97;;;;;;;;;;5019523;28;20129;-73
2022/06/13 14:19:40;;;;;;;6.88;6.18;;;;;;;;;;5032233;28;20037;-73
2022/06/13 14:22:14;;;;;;;9.55;6.97;;;;;;;;;;5031391;28;20128;-73
2022/06/13 14:24:45;;;;;;;7.07;6.53;;;;;;;;;;5014042;28;20042;-74
2022/06/13 14:27:11;;;;;;;7.13;6.53;;;;;;;;;;5031304;28;20068;-73
2022/06/13 14:29:42;;;;;;;7.10;6.38;;;;;;;;;;5031508;28;20068;-73
2022/06/13 14:32:15;;;;;;;6.72;5.88;;;;;;;;;;5031269;28;20041;-76
2022/06/13 14:37:29;;;;;;;7.53;6.57;;;;;;;;;;5031463;28;20514;-73
2022/06/13 14:39:55;;;;;;;7.32;6.68;;;;;;;;;;5013350;28;20038;-73
2022/06/13 14:42:39;;;;;;;7.97;7.35;;;;;;;;;;5031056;28;20504;-72
2022/06/13 14:45:06;;;;;;;7.72;7.13;;;;;;;;;;5030815;28;20503;-74
2022/06/13 14:47:38;;;;;;;7.88;6.60;;;;;;;;;;4997416;28;20046;-74
2022/06/13 14:50:04;;;;;;;7.85;6.82;;;;;;;;;;5030894;28;20080;-71
2022/06/13 14:52:31;;;;;;;7.80;7.03;;;;;;;;;;5013228;28;20128;-73
2022/06/13 14:55:06;;;;;;;7.07;6.13;;;;;;;;;;5030638;28;20045;-74
2022/06/13 14:57:32;;;;;;;7.13;6.53;;;;;;;;;;5031170;28;20048;-73
2022/06/13 15:00:04;;;;;;;7.30;6.65;;;;;;;;;;5030641;28;20045;-74
2022/06/13 15:02:31;;;;;;;7.82;7.15;;;;;;;;;;5031049;28;20124;-73
2022/06/13 15:05:01;;;;;;;7.53;6.90;;;;;;;;;;5030613;28;20034;-73
2022/06/13 15:07:35;;;;;;;7.35;6.75;;;;;;;;;;4996682;28;20536;-72
2022/06/13 15:10:04;;;;;;;7.55;6.88;;;;;;;;;;5012547;28;20048;-73
2022/06/13 15:12:31;;;;;;;8.00;7.03;;;;;;;;;;5030882;28;20402;-73
2022/06/13 15:15:00;;;;;;;9.32;7.00;;;;;;;;;;5030450;28;20607;-74
2022/06/13 15:17:25;;;;;;;7.03;6.43;;;;;;;;;;4996567;28;20532;-74
2022/06/13 15:19:52;;;;;;;6.85;6.30;;;;;;;;;;5012961;28;20045;-74
2022/06/13 15:22:32;;;;;;;6.90;6.30;;;;;;;;;;5012183;28;20054;-73
2022/06/13 15:24:59;;;;;;;8.27;6.45;;;;;;;;;;5012370;28;20129;-73